Time;durP1;ratioP1;P1;durP2;ratioP2;P2;SDS_P1;SDS_P2;PMS_P1;PMS_P2;Temp;Humidity;BMP_temperature;BMP_pressure;BME280_temperature;BME280_humidity;BME280_pressure;Samples;Min_cycle;Max_cycle;Signal;HPM_P1;HPM_P2
2021/12/26 00:00:58;;;;;;;18.40;5.23;;;-0.30;99.90;;;;;;5028920;28;20207;-69
2021/12/26 00:03:26;;;;;;;16.53;4.17;;;-0.30;99.90;;;;;;5041958;28;20226;-69
2021/12/26 00:05:54;;;;;;;12.90;4.20;;;-0.30;99.90;;;;;;5037042;28;20218;-69
2021/12/26 00:08:21;;;;;;;15.50;4.67;;;-0.30;99.90;;;;;;5029019;28;20233;-69
2021/12/26 00:10:50;;;;;;;15.77;4.70;;;-0.20;99.90;;;;;;5036185;28;20221;-69
2021/12/26 00:13:17;;;;;;;16.80;5.27;;;-0.20;99.90;;;;;;5033955;28;20221;-69
2021/12/26 00:15:46;;;;;;;13.43;3.93;;;-0.10;99.90;;;;;;5030633;28;20501;-69
2021/12/26 00:18:13;;;;;;;16.03;4.43;;;-0.10;99.90;;;;;;5026167;28;20726;-69
2021/12/26 00:20:41;;;;;;;18.30;5.40;;;-0.10;99.90;;;;;;5029800;28;20206;-69
2021/12/26 00:23:08;;;;;;;27.33;7.80;;;-0.10;99.90;;;;;;5022121;28;20221;-69
2021/12/26 00:25:35;;;;;;;17.10;3.93;;;-0.10;99.90;;;;;;5026085;28;20222;-69
2021/12/26 00:28:02;;;;;;;15.80;4.87;;;-0.10;99.90;;;;;;5027263;28;20241;-68
2021/12/26 00:30:30;;;;;;;16.20;4.37;;;-0.10;99.90;;;;;;5040771;28;20209;-69
2021/12/26 00:32:58;;;;;;;13.23;4.03;;;-0.10;99.90;;;;;;5028712;28;20206;-69
2021/12/26 00:35:26;;;;;;;14.40;4.23;;;-0.10;99.90;;;;;;5021939;28;20568;-69
2021/12/26 00:37:53;;;;;;;15.60;5.20;;;-0.10;99.90;;;;;;5011814;28;20637;-69
2021/12/26 00:40:22;;;;;;;17.73;4.50;;;-0.10;99.90;;;;;;5028049;28;20602;-69
2021/12/26 00:42:51;;;;;;;14.57;4.20;;;-0.10;99.90;;;;;;5020735;28;20279;-69
2021/12/26 00:45:20;;;;;;;16.33;5.17;;;-0.10;99.90;;;;;;5011393;28;20626;-69
2021/12/26 00:47:47;;;;;;;17.83;5.00;;;-0.10;99.90;;;;;;5036791;28;20708;-69
2021/12/26 00:50:20;;;;;;;17.87;5.40;;;-0.10;99.90;;;;;;5025393;28;20217;-70
2021/12/26 00:52:47;;;;;;;15.97;4.50;;;-0.20;99.90;;;;;;5041809;28;20206;-69
2021/12/26 00:55:16;;;;;;;13.90;4.00;;;-0.20;99.90;;;;;;5026568;28;20214;-69
2021/12/26 00:57:43;;;;;;;18.63;5.40;;;-0.10;99.90;;;;;;5031060;28;20594;-69
2021/12/26 01:00:14;;;;;;;19.00;5.57;;;-0.10;99.90;;;;;;5014769;28;20217;-69
2021/12/26 01:02:42;;;;;;;12.30;3.63;;;-0.20;99.90;;;;;;5018878;28;20193;-69
2021/12/26 01:05:10;;;;;;;14.53;4.20;;;-0.20;99.90;;;;;;5013093;28;20638;-69
2021/12/26 01:07:49;;;;;;;15.30;4.73;;;-0.20;99.90;;;;;;5022188;28;20283;-69
2021/12/26 01:10:18;;;;;;;19.43;5.77;;;-0.10;99.90;;;;;;5041658;28;20270;-69
2021/12/26 01:12:45;;;;;;;15.30;4.33;;;-0.20;99.90;;;;;;5028634;28;20411;-69
2021/12/26 01:15:13;;;;;;;15.70;4.83;;;-0.20;99.90;;;;;;5015301;28;20308;-69
2021/12/26 01:17:48;;;;;;;16.77;4.47;;;-0.20;99.90;;;;;;5013011;28;20367;-69
2021/12/26 01:20:39;;;;;;;15.37;4.13;;;-0.20;99.90;;;;;;5010383;28;20237;-69
2021/12/26 01:23:09;;;;;;;16.43;3.97;;;-0.20;99.90;;;;;;5033843;28;20221;-69
2021/12/26 01:25:36;;;;;;;14.70;4.30;;;-0.30;99.90;;;;;;5016292;28;20619;-69
2021/12/26 01:28:05;;;;;;;15.50;4.83;;;-0.30;99.90;;;;;;5005345;28;20233;-68
2021/12/26 01:30:33;;;;;;;15.00;5.27;;;-0.30;99.90;;;;;;5024309;28;20206;-69
2021/12/26 01:33:01;;;;;;;17.13;4.70;;;-0.20;99.90;;;;;;5018593;28;20208;-69
2021/12/26 01:35:48;;;;;;;16.17;4.27;;;-0.20;99.90;;;;;;5027863;28;20675;-69
2021/12/26 01:38:35;;;;;;;13.80;3.87;;;-0.20;99.90;;;;;;5026851;28;20244;-68
2021/12/26 01:41:30;;;;;;;12.63;3.90;;;-0.30;99.90;;;;;;5003569;28;20588;-68
2021/12/26 01:44:12;;;;;;;14.77;4.20;;;-0.30;99.90;;;;;;5025941;28;20237;-68
2021/12/26 01:46:49;;;;;;;16.90;4.63;;;-0.30;99.90;;;;;;5009178;28;20205;-67
2021/12/26 01:49:22;;;;;;;18.97;5.70;;;-0.30;99.90;;;;;;5009770;28;20244;-68
2021/12/26 01:51:52;;;;;;;15.23;4.53;;;-0.20;99.90;;;;;;5009272;28;20212;-68
2021/12/26 01:54:30;;;;;;;17.07;4.87;;;-0.20;99.90;;;;;;5021451;28;20209;-68
2021/12/26 01:56:59;;;;;;;17.50;5.20;;;-0.20;99.90;;;;;;5018253;28;20213;-68
2021/12/26 01:59:26;;;;;;;15.27;4.43;;;-0.20;99.90;;;;;;5011694;28;20637;-68
2021/12/26 02:02:00;;;;;;;14.70;4.27;;;-0.10;99.90;;;;;;5003896;28;20283;-68
2021/12/26 02:04:29;;;;;;;15.80;5.07;;;-0.10;99.90;;;;;;5002530;28;20261;-68
2021/12/26 02:06:57;;;;;;;12.13;3.57;;;-0.10;99.90;;;;;;5010462;28;20238;-68
2021/12/26 02:09:26;;;;;;;15.53;4.43;;;0.00;99.90;;;;;;5009363;28;20214;-67
2021/12/26 02:11:57;;;;;;;18.37;5.33;;;0.00;99.90;;;;;;5021011;28;20296;-67
2021/12/26 02:14:26;;;;;;;19.50;5.73;;;-0.10;99.90;;;;;;5015760;28;20302;-67
2021/12/26 02:17:22;;;;;;;37.03;9.40;;;-0.10;99.90;;;;;;5021939;22;20221;-85
2021/12/26 02:19:53;;;;;;;16.23;4.83;;;-0.10;99.90;;;;;;4969959;28;20664;-85
2021/12/26 02:22:27;;;;;;;17.53;5.27;;;-0.10;99.90;;;;;;4964885;28;20301;-85
2021/12/26 02:25:14;;;;;;;15.13;4.60;;;-0.10;99.90;;;;;;4971329;28;20226;-85
2021/12/26 02:27:42;;;;;;;15.47;4.90;;;-0.10;99.90;;;;;;4971965;28;20706;-85
2021/12/26 02:30:15;;;;;;;12.27;3.83;;;-0.10;99.90;;;;;;4973414;28;20594;-84
2021/12/26 02:32:48;;;;;;;20.57;5.03;;;-0.10;99.90;;;;;;4987351;28;20646;-85
2021/12/26 02:35:19;;;;;;;18.17;5.73;;;0.00;99.90;;;;;;4986084;28;20235;-85
2021/12/26 02:37:46;;;;;;;16.57;5.37;;;0.00;99.90;;;;;;4988433;28;20749;-85
2021/12/26 02:40:16;;;;;;;15.57;4.60;;;0.10;99.90;;;;;;4979821;28;20222;-84
2021/12/26 02:42:44;;;;;;;17.13;5.03;;;0.00;99.90;;;;;;4973629;28;20263;-85
2021/12/26 02:45:11;;;;;;;16.57;5.47;;;-0.10;99.90;;;;;;4983512;28;20242;-85
2021/12/26 02:47:40;;;;;;;14.83;4.87;;;-0.10;99.90;;;;;;4985804;28;20326;-85
2021/12/26 02:50:10;;;;;;;17.23;5.60;;;0.00;99.90;;;;;;5001410;28;20221;-85
2021/12/26 02:52:39;;;;;;;16.53;4.83;;;0.00;99.90;;;;;;4992471;28;20788;-85
2021/12/26 02:55:07;;;;;;;18.00;5.17;;;0.00;99.90;;;;;;4971280;28;20674;-85
2021/12/26 02:57:35;;;;;;;17.03;5.67;;;0.00;99.90;;;;;;4966696;28;20707;-85
2021/12/26 03:00:06;;;;;;;13.90;4.07;;;0.00;99.90;;;;;;4972402;28;20219;-84
2021/12/26 03:02:33;;;;;;;12.13;3.90;;;0.00;99.90;;;;;;4965711;28;20219;-85
2021/12/26 03:05:04;;;;;;;15.87;5.27;;;0.00;99.90;;;;;;4969883;28;20303;-85
2021/12/26 03:07:31;;;;;;;13.30;4.47;;;0.00;99.90;;;;;;4988382;28;20741;-85
2021/12/26 03:10:00;;;;;;;16.27;5.37;;;0.10;99.90;;;;;;4990086;28;20211;-85
2021/12/26 03:12:29;;;;;;;16.90;4.97;;;0.10;99.90;;;;;;4969686;28;20298;-85
2021/12/26 03:14:56;;;;;;;13.77;4.37;;;0.10;99.90;;;;;;4973728;28;20503;-85
2021/12/26 03:17:24;;;;;;;15.33;5.17;;;0.30;99.90;;;;;;4972536;28;20234;-85
2021/12/26 03:19:51;;;;;;;16.47;5.30;;;0.10;99.90;;;;;;4973122;28;20676;-85
2021/12/26 03:22:19;;;;;;;18.17;5.40;;;0.10;99.90;;;;;;4971184;28;20218;-86
2021/12/26 03:24:46;;;;;;;12.67;3.97;;;0.30;99.90;;;;;;4970518;28;20727;-86
2021/12/26 03:27:14;;;;;;;14.77;4.53;;;0.20;99.90;;;;;;4988869;28;20242;-86
2021/12/26 03:29:42;;;;;;;15.33;4.97;;;0.20;99.90;;;;;;4986897;28;20203;-86
2021/12/26 03:32:15;;;;;;;13.63;4.67;;;0.20;99.90;;;;;;4970797;28;20299;-86
2021/12/26 03:34:46;;;;;;;12.73;3.97;;;0.20;99.90;;;;;;4970747;28;20207;-86
2021/12/26 03:37:14;;;;;;;15.73;4.93;;;0.20;99.90;;;;;;4986377;28;20250;-86
2021/12/26 03:39:41;;;;;;;16.50;5.10;;;0.10;99.90;;;;;;4986727;28;20215;-86
2021/12/26 03:42:09;;;;;;;14.77;4.80;;;0.20;99.90;;;;;;4985840;28;20223;-86
2021/12/26 03:44:41;;;;;;;17.90;5.33;;;0.20;99.90;;;;;;4970498;28;20227;-86
2021/12/26 03:47:08;;;;;;;16.00;4.57;;;0.20;99.90;;;;;;4972057;28;20245;-86
2021/12/26 03:49:35;;;;;;;19.00;5.57;;;0.20;99.90;;;;;;4982331;28;20282;-87
2021/12/26 03:52:03;;;;;;;14.77;4.80;;;0.20;99.90;;;;;;5005836;28;20268;-86
2021/12/26 03:54:30;;;;;;;15.97;5.17;;;0.20;99.90;;;;;;4993675;28;20319;-86
2021/12/26 03:56:57;;;;;;;16.50;4.40;;;0.50;99.90;;;;;;4985212;28;20230;-86
2021/12/26 03:59:27;;;;;;;17.20;5.53;;;0.20;99.90;;;;;;4971169;28;20215;-86
2021/12/26 04:01:56;;;;;;;16.50;4.30;;;0.20;99.90;;;;;;4966383;28;20192;-86
2021/12/26 04:04:24;;;;;;;18.17;5.60;;;0.20;99.90;;;;;;4971661;28;20223;-86
2021/12/26 04:06:51;;;;;;;13.27;4.63;;;1.70;99.90;;;;;;4972340;28;20245;-85
2021/12/26 04:09:18;;;;;;;16.30;4.67;;;0.30;99.90;;;;;;4974479;28;20214;-86
2021/12/26 04:11:46;;;;;;;18.03;5.87;;;0.40;99.90;;;;;;4991893;28;20222;-86
2021/12/26 04:14:14;;;;;;;17.10;5.23;;;0.40;99.90;;;;;;4976873;28;20243;-86
2021/12/26 04:16:42;;;;;;;17.87;6.13;;;0.50;99.90;;;;;;4975761;28;20227;-87
2021/12/26 04:19:11;;;;;;;19.90;5.83;;;0.50;99.90;;;;;;4975021;28;20223;-87
2021/12/26 04:21:38;;;;;;;11.40;3.50;;;0.50;99.90;;;;;;4991617;28;20278;-86
2021/12/26 04:24:06;;;;;;;13.53;4.37;;;0.60;99.90;;;;;;4991226;28;20884;-86
2021/12/26 04:26:34;;;;;;;14.37;4.10;;;0.50;99.90;;;;;;4974456;28;20714;-86
2021/12/26 04:29:01;;;;;;;17.57;5.73;;;0.60;99.90;;;;;;4974687;28;20308;-85
2021/12/26 04:31:28;;;;;;;15.90;5.63;;;0.50;99.90;;;;;;4975946;28;20238;-86
2021/12/26 04:33:55;;;;;;;12.97;4.50;;;0.50;99.90;;;;;;4986884;28;20207;-85
2021/12/26 04:36:27;;;;;;;15.63;4.40;;;0.40;99.90;;;;;;4980879;28;20672;-85
2021/12/26 04:38:54;;;;;;;12.00;3.93;;;0.40;99.90;;;;;;4980634;28;20270;-85
2021/12/26 04:41:21;;;;;;;12.43;4.30;;;0.40;99.90;;;;;;4980815;28;20211;-85
2021/12/26 04:44:06;;;;;;;11.87;4.00;;;0.40;99.90;;;;;;5001349;28;20199;-87
2021/12/26 04:46:42;;;;;;;17.00;4.83;;;0.40;99.90;;;;;;5000107;28;20253;-87
2021/12/26 04:49:23;;;;;;;14.67;5.33;;;0.40;99.90;;;;;;4985947;28;20267;-85
2021/12/26 04:51:51;;;;;;;15.03;5.23;;;0.40;99.90;;;;;;4992717;28;20199;-87
2021/12/26 04:54:20;;;;;;;13.03;4.13;;;0.40;99.90;;;;;;4994296;28;20202;-85
2021/12/26 04:56:47;;;;;;;12.30;4.30;;;0.40;99.90;;;;;;4971370;28;20650;-85
2021/12/26 04:59:14;;;;;;;18.00;5.57;;;0.40;99.90;;;;;;4976657;28;20225;-85
2021/12/26 05:01:41;;;;;;;11.90;4.13;;;0.40;99.90;;;;;;4993992;28;20214;-85
2021/12/26 05:04:10;;;;;;;15.03;4.97;;;0.40;99.90;;;;;;4973453;28;21000;-84
2021/12/26 05:06:38;;;;;;;13.93;4.43;;;0.30;99.90;;;;;;4992845;28;20239;-86
2021/12/26 05:09:07;;;;;;;14.77;4.23;;;0.30;99.90;;;;;;4975154;28;20245;-84
2021/12/26 05:11:36;;;;;;;18.00;5.40;;;0.30;99.90;;;;;;4991909;28;20196;-85
2021/12/26 05:14:03;;;;;;;12.30;4.17;;;0.30;99.90;;;;;;4990064;28;20370;-85
2021/12/26 05:16:30;;;;;;;14.77;4.60;;;0.30;99.90;;;;;;4990543;28;20231;-86
2021/12/26 05:18:57;;;;;;;16.97;5.43;;;0.40;99.90;;;;;;4987520;28;20223;-86
2021/12/26 05:21:25;;;;;;;15.00;5.33;;;0.30;99.90;;;;;;4989963;28;20296;-85
2021/12/26 05:23:52;;;;;;;16.30;4.80;;;0.30;99.90;;;;;;4974963;28;20807;-85
2021/12/26 05:26:22;;;;;;;17.90;5.33;;;0.30;99.90;;;;;;4974103;28;20309;-86
2021/12/26 05:28:49;;;;;;;20.50;5.60;;;0.40;99.90;;;;;;4973698;28;20222;-85
2021/12/26 05:31:18;;;;;;;19.27;5.13;;;0.30;99.90;;;;;;4974964;28;20219;-86
2021/12/26 05:33:45;;;;;;;16.97;5.40;;;0.30;99.90;;;;;;4987228;28;20211;-85
2021/12/26 05:36:13;;;;;;;14.33;4.33;;;0.30;99.90;;;;;;4990720;28;20203;-85
2021/12/26 05:38:43;;;;;;;14.37;4.53;;;0.30;99.90;;;;;;4979715;28;20214;-86
2021/12/26 05:41:11;;;;;;;17.43;5.30;;;0.30;99.90;;;;;;4975992;28;20678;-87
2021/12/26 05:43:53;;;;;;;17.33;5.47;;;0.30;99.90;;;;;;4973736;28;20630;-85
2021/12/26 05:46:20;;;;;;;18.77;6.20;;;0.30;99.90;;;;;;4974056;28;20901;-86
2021/12/26 05:48:48;;;;;;;16.20;4.70;;;0.30;99.90;;;;;;4972679;28;20214;-85
2021/12/26 05:51:28;;;;;;;17.80;5.00;;;0.30;99.90;;;;;;4983889;28;20214;-86
2021/12/26 05:54:16;;;;;;;19.63;6.17;;;0.30;99.90;;;;;;4980656;28;20223;-86
2021/12/26 05:56:43;;;;;;;18.47;5.00;;;0.30;99.90;;;;;;4973358;28;20239;-85
2021/12/26 05:59:11;;;;;;;16.07;5.37;;;0.40;99.90;;;;;;4972987;28;20219;-85
2021/12/26 06:01:40;;;;;;;12.30;4.23;;;0.30;99.90;;;;;;4972951;28;20317;-86
2021/12/26 06:04:07;;;;;;;14.10;4.40;;;0.40;99.90;;;;;;4988208;28;20379;-85
2021/12/26 06:06:34;;;;;;;17.27;5.30;;;0.40;99.90;;;;;;4975591;28;20227;-87
2021/12/26 06:09:03;;;;;;;15.13;4.53;;;0.50;99.90;;;;;;5007552;28;20203;-86
2021/12/26 06:11:31;;;;;;;12.63;3.63;;;0.40;99.90;;;;;;4997964;28;20197;-87
2021/12/26 06:13:58;;;;;;;15.87;4.63;;;0.40;99.90;;;;;;4979174;28;20278;-86
2021/12/26 06:16:26;;;;;;;15.57;4.77;;;0.30;99.90;;;;;;4975397;28;20301;-85
2021/12/26 06:18:53;;;;;;;15.53;4.83;;;0.30;99.90;;;;;;4975449;28;20215;-85
2021/12/26 06:21:39;;;;;;;16.97;5.37;;;0.30;99.90;;;;;;4991542;28;20214;-85
2021/12/26 06:24:28;;;;;;;15.33;4.63;;;0.40;99.90;;;;;;4991294;28;20695;-84
2021/12/26 06:27:15;;;;;;;16.43;5.00;;;0.30;99.90;;;;;;4995270;28;20384;-85
2021/12/26 06:30:01;;;;;;;15.53;4.83;;;0.30;99.90;;;;;;4994964;28;20214;-85
2021/12/26 06:32:48;;;;;;;17.80;4.67;;;0.40;99.90;;;;;;4984619;28;20584;-85
2021/12/26 06:35:34;;;;;;;16.17;4.90;;;0.40;99.90;;;;;;4990300;28;20210;-86
2021/12/26 06:38:19;;;;;;;14.10;3.57;;;0.30;99.90;;;;;;4991159;28;20305;-87
2021/12/26 06:41:08;;;;;;;19.40;5.03;;;0.30;99.90;;;;;;4940416;28;20226;-86
2021/12/26 06:43:54;;;;;;;19.33;5.73;;;0.20;99.90;;;;;;4991484;28;20214;-87
2021/12/26 06:46:41;;;;;;;14.50;4.70;;;0.20;99.90;;;;;;4992105;28;20603;-86
2021/12/26 06:49:25;;;;;;;16.73;5.47;;;0.30;99.90;;;;;;4988224;28;20211;-86
2021/12/26 06:51:52;;;;;;;16.60;5.43;;;0.30;99.90;;;;;;4990796;28;20214;-87
2021/12/26 06:54:19;;;;;;;16.07;5.10;;;0.30;99.90;;;;;;4971954;28;20207;-85
2021/12/26 06:56:46;;;;;;;17.80;5.87;;;0.20;99.90;;;;;;4973876;28;20223;-86
2021/12/26 06:59:13;;;;;;;18.03;5.47;;;0.50;99.90;;;;;;4990506;28;20207;-86
2021/12/26 07:01:40;;;;;;;18.03;5.93;;;0.30;99.90;;;;;;4974578;28;21078;-86
2021/12/26 07:04:09;;;;;;;16.43;5.30;;;0.20;99.90;;;;;;4971169;28;20314;-85
2021/12/26 07:06:39;;;;;;;16.00;5.20;;;0.20;99.90;;;;;;4986220;28;20243;-86
2021/12/26 07:09:12;;;;;;;19.40;5.93;;;0.30;99.90;;;;;;4972693;28;20670;-86
2021/12/26 07:11:39;;;;;;;19.00;5.83;;;0.30;99.90;;;;;;4985153;28;20219;-86
2021/12/26 07:14:09;;;;;;;16.23;5.50;;;0.30;99.90;;;;;;4975636;28;20802;-86
2021/12/26 07:16:37;;;;;;;17.57;5.50;;;0.40;99.90;;;;;;4985968;28;20231;-86
2021/12/26 07:19:04;;;;;;;18.40;5.93;;;0.50;99.90;;;;;;4971405;28;20310;-86
2021/12/26 07:21:37;;;;;;;17.00;5.77;;;0.50;99.90;;;;;;4969602;28;20221;-88
2021/12/26 07:24:10;;;;;;;16.47;5.40;;;0.70;99.90;;;;;;4989218;28;20214;-86
2021/12/26 07:26:37;;;;;;;12.80;4.27;;;0.70;99.90;;;;;;4987381;28;20318;-87
2021/12/26 07:29:10;;;;;;;18.37;6.23;;;0.70;99.90;;;;;;4987478;28;20286;-86
2021/12/26 07:31:42;;;;;;;22.83;7.43;;;0.70;99.90;;;;;;4971672;28;20207;-86
2021/12/26 07:34:09;;;;;;;22.77;5.60;;;0.70;99.90;;;;;;4970451;28;20266;-87
2021/12/26 07:36:37;;;;;;;14.50;5.40;;;0.70;99.90;;;;;;4972619;28;20302;-86
2021/12/26 07:39:21;;;;;;;17.67;6.00;;;0.70;99.90;;;;;;4987788;28;20687;-88
2021/12/26 07:41:48;;;;;;;20.50;5.97;;;0.60;99.90;;;;;;4989215;28;20207;-88
2021/12/26 07:44:38;;;;;;;16.27;5.90;;;0.60;99.90;;;;;;4991538;28;20211;-87
2021/12/26 07:47:28;;;;;;;16.73;5.57;;;0.70;99.90;;;;;;4991446;28;20233;-88
2021/12/26 07:50:01;;;;;;;16.50;5.70;;;0.70;99.90;;;;;;4987277;28;20226;-88
2021/12/26 07:52:48;;;;;;;19.90;6.23;;;0.70;99.90;;;;;;4995443;28;20291;-87
2021/12/26 07:55:35;;;;;;;16.73;5.47;;;1.00;99.90;;;;;;4992025;28;20682;-88
2021/12/26 07:58:27;;;;;;;18.37;6.10;;;0.80;99.90;;;;;;5011699;28;20233;-88
2021/12/26 08:01:15;;;;;;;15.07;5.17;;;0.90;99.90;;;;;;5011713;28;20253;-88
2021/12/26 08:04:00;;;;;;;14.00;5.23;;;1.00;99.90;;;;;;4997768;28;20271;-89
2021/12/26 08:06:46;;;;;;;18.67;6.10;;;1.00;99.90;;;;;;5006165;28;20277;-87
2021/12/26 08:09:13;;;;;;;18.53;6.50;;;1.00;99.90;;;;;;4993212;28;20214;-87
2021/12/26 08:11:42;;;;;;;16.63;5.93;;;1.00;99.90;;;;;;4975446;28;20306;-87
2021/12/26 08:14:09;;;;;;;17.37;5.00;;;1.10;99.90;;;;;;4988649;28;20221;-87
2021/12/26 08:16:36;;;;;;;17.33;6.20;;;1.20;99.90;;;;;;4990635;28;20231;-87
2021/12/26 08:19:06;;;;;;;19.57;6.53;;;1.40;99.90;;;;;;4992569;28;20211;-87
2021/12/26 08:21:33;;;;;;;18.33;5.90;;;1.20;99.90;;;;;;4985723;28;20215;-87
2021/12/26 08:24:01;;;;;;;16.90;6.07;;;1.30;99.90;;;;;;4974911;28;20230;-88
2021/12/26 08:26:29;;;;;;;20.70;6.00;;;1.20;99.90;;;;;;4993965;28;20604;-88
2021/12/26 08:28:57;;;;;;;18.93;6.20;;;1.20;99.90;;;;;;4975167;28;20212;-87
2021/12/26 08:31:24;;;;;;;15.40;4.63;;;1.20;99.90;;;;;;4975207;28;20229;-87
2021/12/26 08:33:51;;;;;;;14.50;4.40;;;1.30;99.90;;;;;;4990637;28;20365;-87
2021/12/26 08:36:19;;;;;;;21.93;6.17;;;1.30;99.90;;;;;;4991412;28;20289;-86
2021/12/26 08:38:47;;;;;;;20.63;7.17;;;1.40;99.90;;;;;;4996923;28;20207;-88
2021/12/26 08:41:15;;;;;;;15.43;5.67;;;1.30;99.90;;;;;;4994311;28;20203;-88
2021/12/26 08:43:43;;;;;;;14.80;5.07;;;1.30;99.90;;;;;;4994096;28;20676;-89
2021/12/26 08:46:12;;;;;;;13.33;4.83;;;1.40;99.90;;;;;;4974530;28;20235;-88
2021/12/26 08:48:39;;;;;;;14.93;5.93;;;2.80;99.90;;;;;;4982066;28;20642;-89
2021/12/26 08:51:07;;;;;;;16.30;6.03;;;1.40;99.90;;;;;;5000260;28;20215;-90
2021/12/26 08:53:36;;;;;;;13.70;4.93;;;2.60;99.90;;;;;;4978207;28;20221;-90
2021/12/26 08:56:04;;;;;;;17.30;5.50;;;1.50;99.90;;;;;;4997246;28;20214;-88
2021/12/26 08:58:32;;;;;;;17.07;5.57;;;1.60;99.90;;;;;;4971303;28;20212;-90
2021/12/26 09:01:00;;;;;;;15.23;5.27;;;3.20;99.90;;;;;;4983752;28;20250;-89
2021/12/26 09:03:28;;;;;;;13.30;4.57;;;1.70;99.90;;;;;;4977096;28;20207;-88
2021/12/26 09:05:55;;;;;;;18.23;6.10;;;1.80;99.90;;;;;;4977981;28;20230;-87
2021/12/26 09:08:23;;;;;;;17.43;6.93;;;1.80;99.90;;;;;;4976486;28;20239;-87
2021/12/26 09:10:53;;;;;;;17.33;6.47;;;1.80;99.90;;;;;;4997587;28;20207;-88
2021/12/26 09:13:20;;;;;;;11.67;4.10;;;1.90;99.90;;;;;;4977493;28;20226;-87
2021/12/26 09:15:48;;;;;;;15.07;6.03;;;2.00;99.90;;;;;;4992285;28;20207;-87
2021/12/26 09:18:16;;;;;;;16.97;5.97;;;2.00;99.90;;;;;;4977102;28;20239;-87
2021/12/26 09:20:44;;;;;;;16.57;5.53;;;2.00;99.90;;;;;;4975779;28;20845;-88
2021/12/26 09:23:11;;;;;;;18.33;6.50;;;1.90;99.90;;;;;;4978718;28;20223;-87
2021/12/26 09:25:39;;;;;;;19.40;6.23;;;2.00;99.90;;;;;;4975678;28;20223;-87
2021/12/26 09:28:06;;;;;;;14.90;5.00;;;2.00;99.90;;;;;;4995530;28;20230;-86
2021/12/26 09:30:34;;;;;;;15.17;4.57;;;2.50;99.90;;;;;;4998609;28;20902;-86
2021/12/26 09:33:01;;;;;;;16.57;6.23;;;2.00;99.90;;;;;;4999032;28;20628;-88
2021/12/26 09:35:29;;;;;;;14.97;5.57;;;2.10;99.90;;;;;;4998171;28;20199;-85
2021/12/26 09:38:02;;;;;;;14.33;5.47;;;2.30;99.90;;;;;;4999099;28;20227;-88
2021/12/26 09:40:29;;;;;;;14.87;5.30;;;4.60;99.90;;;;;;4986065;28;20282;-87
2021/12/26 09:42:57;;;;;;;13.33;5.13;;;2.70;99.90;;;;;;4986248;28;20304;-87
2021/12/26 09:45:25;;;;;;;13.63;5.50;;;2.90;99.90;;;;;;4977552;28;20191;-87
2021/12/26 09:47:52;;;;;;;15.97;5.40;;;2.90;99.90;;;;;;4976429;28;20231;-87
2021/12/26 09:50:22;;;;;;;14.20;5.13;;;3.10;99.90;;;;;;4973610;28;20598;-89
2021/12/26 09:52:52;;;;;;;20.57;6.43;;;3.20;99.90;;;;;;4972212;28;20200;-88
2021/12/26 09:55:22;;;;;;;15.37;5.67;;;3.30;99.90;;;;;;4972025;28;20210;-88
2021/12/26 09:57:50;;;;;;;17.20;5.27;;;3.20;99.90;;;;;;4973217;28;20243;-87
2021/12/26 10:00:23;;;;;;;17.70;6.57;;;3.20;99.90;;;;;;4974707;28;20271;-87
2021/12/26 10:03:15;;;;;;;14.97;4.67;;;3.20;99.90;;;;;;4976858;28;20204;-87
2021/12/26 10:06:01;;;;;;;15.50;6.03;;;3.20;99.90;;;;;;4992985;28;20196;-87
2021/12/26 10:08:31;;;;;;;16.20;5.90;;;3.20;99.90;;;;;;4976573;28;20222;-87
2021/12/26 10:11:08;;;;;;;13.57;5.00;;;3.20;99.90;;;;;;4977435;28;20202;-87
2021/12/26 10:13:41;;;;;;;15.33;6.00;;;3.30;99.90;;;;;;4976473;28;20199;-87
2021/12/26 10:16:08;;;;;;;15.80;5.70;;;3.50;99.90;;;;;;4977218;28;20215;-87
2021/12/26 10:18:39;;;;;;;16.20;5.93;;;4.60;99.90;;;;;;4973485;28;20274;-89
2021/12/26 10:21:25;;;;;;;18.00;6.73;;;3.60;99.90;;;;;;4975199;28;20203;-88
2021/12/26 10:23:53;;;;;;;17.73;6.77;;;3.60;99.90;;;;;;4954853;28;20227;-88
2021/12/26 10:26:25;;;;;;;18.20;6.37;;;3.70;99.90;;;;;;4986248;28;20314;-88
2021/12/26 10:29:13;;;;;;;19.43;6.90;;;3.70;99.90;;;;;;4989377;28;20207;-88
2021/12/26 10:31:49;;;;;;;18.57;6.33;;;3.90;99.90;;;;;;4974288;28;20286;-88
2021/12/26 10:34:19;;;;;;;16.50;6.53;;;4.00;99.90;;;;;;4990987;28;20215;-88
2021/12/26 10:36:49;;;;;;;15.93;6.73;;;4.10;99.90;;;;;;4993469;28;20320;-89
2021/12/26 10:39:20;;;;;;;18.77;7.07;;;4.20;99.90;;;;;;4974530;28;20974;-88
2021/12/26 10:41:51;;;;;;;13.93;5.23;;;4.40;99.90;;;;;;4973631;28;20203;-90
2021/12/26 10:44:25;;;;;;;17.47;6.67;;;4.60;99.90;;;;;;4981600;28;20290;-89
2021/12/26 10:46:57;;;;;;;16.87;6.30;;;4.60;99.90;;;;;;4991997;28;20234;-88
2021/12/26 10:49:34;;;;;;;14.67;6.47;;;4.60;99.90;;;;;;4992092;28;20325;-88
2021/12/26 10:52:03;;;;;;;14.70;6.40;;;4.70;99.90;;;;;;4976719;28;20211;-88
2021/12/26 10:54:32;;;;;;;17.80;6.67;;;4.70;99.90;;;;;;4978995;28;20234;-88
2021/12/26 10:57:06;;;;;;;13.97;5.67;;;5.50;99.90;;;;;;5012838;28;20223;-90
2021/12/26 10:59:33;;;;;;;17.23;5.80;;;4.60;99.90;;;;;;4987339;28;20203;-89
2021/12/26 11:02:00;;;;;;;16.93;5.80;;;4.70;99.90;;;;;;4975632;28;20342;-87
2021/12/26 11:04:28;;;;;;;18.40;6.73;;;4.60;99.90;;;;;;4976724;28;20294;-88
2021/12/26 11:07:02;;;;;;;14.73;5.20;;;4.50;99.90;;;;;;4974281;28;20330;-88
2021/12/26 11:09:29;;;;;;;16.73;6.63;;;6.20;99.90;;;;;;4989062;28;20216;-88
2021/12/26 11:12:02;;;;;;;18.57;7.30;;;6.70;99.90;;;;;;4989530;28;20266;-89
2021/12/26 11:14:31;;;;;;;18.13;6.57;;;5.40;99.90;;;;;;4974284;28;20234;-88
2021/12/26 11:16:59;;;;;;;20.87;7.13;;;4.60;99.90;;;;;;4971679;28;20227;-88
2021/12/26 11:19:45;;;;;;;16.60;6.50;;;4.60;99.90;;;;;;4973597;28;20750;-88
2021/12/26 11:22:12;;;;;;;16.80;6.43;;;4.70;99.90;;;;;;4969590;28;20219;-88
2021/12/26 11:24:41;;;;;;;14.33;6.30;;;4.70;99.90;;;;;;4990248;28;20291;-89
2021/12/26 11:27:08;;;;;;;16.87;7.10;;;4.80;99.90;;;;;;4973109;28;20608;-88
2021/12/26 11:29:36;;;;;;;19.33;7.53;;;4.90;99.90;;;;;;4984523;28;20219;-89
2021/12/26 11:32:04;;;;;;;14.97;6.27;;;6.60;99.90;;;;;;4978279;28;20213;-88
2021/12/26 11:34:32;;;;;;;16.23;6.13;;;5.00;99.90;;;;;;4992568;28;20203;-89
2021/12/26 11:37:01;;;;;;;16.80;6.53;;;5.30;99.90;;;;;;4988838;28;20694;-89
2021/12/26 11:39:47;;;;;;;18.23;7.53;;;5.00;99.90;;;;;;4988723;28;20214;-88
2021/12/26 11:43:09;;;;;;;18.00;7.50;;;6.20;99.90;;;;;;4994600;28;20214;-87
2021/12/26 11:46:06;;;;;;;17.83;7.17;;;5.60;99.90;;;;;;4986023;28;20702;-88
2021/12/26 11:49:26;;;;;;;14.93;7.03;;;5.20;99.90;;;;;;4949060;28;20211;-88
2021/12/26 11:52:36;;;;;;;16.00;6.90;;;5.20;99.90;;;;;;4990012;28;20218;-87
2021/12/26 11:55:38;;;;;;;13.87;6.03;;;5.10;99.90;;;;;;4981412;28;20385;-88
2021/12/26 11:58:32;;;;;;;18.53;7.90;;;4.80;99.90;;;;;;4989899;28;20287;-88
2021/12/26 12:01:02;;;;;;;22.60;8.00;;;4.70;99.90;;;;;;4991290;28;20205;-89
2021/12/26 12:03:31;;;;;;;19.30;7.97;;;4.70;99.90;;;;;;4993000;28;20207;-89
2021/12/26 12:06:00;;;;;;;20.27;8.30;;;5.30;99.90;;;;;;4997311;28;20529;-87
2021/12/26 12:08:29;;;;;;;20.80;7.90;;;4.90;99.90;;;;;;4988407;28;20226;-88
2021/12/26 12:10:58;;;;;;;20.57;7.73;;;4.90;99.90;;;;;;4976406;28;20214;-87
2021/12/26 12:13:45;;;;;;;23.37;8.80;;;5.00;99.90;;;;;;4988682;28;20245;-88
2021/12/26 12:16:28;;;;;;;19.80;7.30;;;5.10;99.90;;;;;;4969311;28;20219;-87
2021/12/26 12:18:57;;;;;;;19.20;8.17;;;5.10;99.90;;;;;;4986861;28;20220;-87
2021/12/26 12:21:31;;;;;;;22.23;8.93;;;5.20;99.90;;;;;;4977257;28;20298;-88
2021/12/26 12:24:01;;;;;;;18.23;8.10;;;5.30;99.90;;;;;;4989952;28;20204;-87
2021/12/26 12:26:43;;;;;;;16.93;7.47;;;5.30;99.90;;;;;;4977395;28;20238;-90
2021/12/26 12:29:14;;;;;;;14.43;5.63;;;5.30;99.90;;;;;;4973183;28;20211;-91
2021/12/26 12:31:43;;;;;;;18.90;8.83;;;5.30;99.90;;;;;;4985850;28;20827;-89
2021/12/26 12:34:13;;;;;;;15.30;7.77;;;5.30;99.90;;;;;;4995461;28;20298;-91
2021/12/26 12:36:42;;;;;;;17.77;7.90;;;5.20;99.90;;;;;;4995329;28;20238;-92
2021/12/26 12:39:15;;;;;;;18.03;7.93;;;6.20;99.90;;;;;;4979235;28;20200;-91
2021/12/26 12:41:44;;;;;;;17.17;7.83;;;6.60;99.90;;;;;;4995081;28;20208;-91
2021/12/26 12:44:25;;;;;;;;;;;5.50;99.90;;;;;;4980660;28;20246;-91
2021/12/26 12:46:58;;;;;;;;;;;5.60;99.90;;;;;;4980957;28;19961;-91
2021/12/26 12:49:43;;;;;;;;;;;5.70;99.90;;;;;;4968854;28;19925;-90
2021/12/26 12:52:30;;;;;;;;;;;5.70;99.90;;;;;;4977683;28;20650;-91
2021/12/26 12:54:56;;;;;;;;;;;2.20;99.90;;;;;;4988097;28;20007;-89
2021/12/26 12:57:35;;;;;;;;;;;6.40;99.90;;;;;;4979742;28;20281;-89
2021/12/26 13:00:01;;;;;;;;;;;5.60;99.90;;;;;;4977437;28;19921;-91
2021/12/26 13:02:37;;;;;;;;;;;5.40;99.90;;;;;;4994680;28;19926;-92
2021/12/26 13:05:06;;;;;;;;;;;5.30;99.90;;;;;;4982486;28;20024;-92
2021/12/26 13:07:33;;;;;;;;;;;;;;;;;;5008727;28;19910;-91
2021/12/26 13:10:00;;;;;;;;;;;5.50;99.90;;;;;;4998243;28;19930;-90
2021/12/26 13:12:28;;;;;;;;;;;5.60;99.90;;;;;;5001825;28;20025;-91